Ernest Campbell — WDB3005 — position and weather

sailwx.info

Track history (hours):
 
Tides and Currents Weather Stations Pressure Air Temp Water Temp Dewpoint Dewpoint Depression Visibility Wind Speed Wind Dir Waves Ship Positions

Ernest Campbell

Owner: Campbell Leasing Company LLC, Wrangell, AK. More information available from US FCC via Universal Licensing System and Coast Guard Vessel Documentation Center.

Last reported at 2015-Jun-30 20:34 UTC. Time now 2015-Jun-30 21:21 UTC.
Position N 48°08' W 123°25'.

Length 33 m; draft 4.6 m.

Type: Tow > 200 m length. MMSI: 366882320.

Date/timePositionNaut miles runAvg speedWind from/ knotsBaromVisibWave heightAir tempDewpointWater temp
2015-Jun-30 20:34N 48°08' W 123°25'0 0.1
2015-Jun-30 19:34N 48°08' W 123°25'0 0.1
2015-Jun-30 19:09N 48°08' W 123°25'0 0.1
2015-Jun-30 18:34N 48°08' W 123°25'0 0.0
2015-Jun-30 17:34N 48°08' W 123°25'0 0.2
2015-Jun-30 17:14N 48°08' W 123°25'0 0.1
2015-Jun-30 16:34N 48°08' W 123°25'0 0.0
2015-Jun-30 16:28N 48°08' W 123°25'0 0.0
2015-Jun-30 15:34N 48°08' W 123°25'0 0.2
2015-Jun-30 14:42N 48°08' W 123°25'0 3.2
2015-Jun-30 14:34N 48°08' W 123°24'4 4.0
2015-Jun-30 13:33N 48°09' W 123°19'6 5.8
2015-Jun-30 12:31N 48°12' W 123°10'6 6.1
2015-Jun-30 11:32N 48°13' W 123°02'17 4.9
2015-Jun-30 08:04N 48°05' W 122°38'3 4.9
2015-Jun-30 07:28N 48°03' W 122°38'4 4.5
2015-Jun-30 06:31N 47°59' W 122°35'1 4.8
2015-Jun-30 06:23N 47°58' W 122°34'2 4.3
2015-Jun-30 05:58N 47°57' W 122°32'2 4.4
2015-Jun-30 05:33N 47°56' W 122°30'5 4.7
2015-Jun-30 04:34N 47°52' W 122°27'1 4.8
2015-Jun-30 04:21N 47°51' W 122°27'4 4.7
2015-Jun-30 03:34N 47°47' W 122°26'0 4.5
2015-Jun-30 03:31N 47°47' W 122°26'5 4.7
2015-Jun-30 02:34N 47°42' W 122°26'0 4.8
2015-Jun-30 02:31N 47°42' W 122°26'5 5.0
2015-Jun-30 01:34N 47°37' W 122°25'0 5.2
2015-Jun-30 01:30N 47°37' W 122°25'3 3.6
2015-Jun-30 00:34N 47°35' W 122°21'0 0.0
2015-Jun-30 00:29N 47°35' W 122°21'0 0.0
2015-Jun-29 23:33N 47°35' W 122°21'0 0.0
2015-Jun-29 23:32N 47°35' W 122°21'0 0.0
2015-Jun-29 22:33N 47°35' W 122°21'0 0.0
2015-Jun-29 22:19N 47°35' W 122°21'0 0.0
2015-Jun-29 21:33N 47°35' W 122°21'0 0.0
2015-Jun-29 21:28N 47°35' W 122°21'1 1.1
2015-Jun-29 20:33N 47°34' W 122°21'0 0.0
2015-Jun-29 20:33N 47°34' W 122°21'1 1.0
2015-Jun-29 19:33N 47°35' W 122°21'0 0.0
2015-Jun-29 19:32N 47°35' W 122°21'0 0.0
2015-Jun-29 18:34N 47°35' W 122°21'0 0.2
2015-Jun-29 18:32N 47°35' W 122°21'0 0.0
2015-Jun-29 17:33N 47°35' W 122°21'0 0.0
2015-Jun-29 17:27N 47°35' W 122°21'0 0.0
2015-Jun-29 16:33N 47°35' W 122°21'0 0.0
2015-Jun-29 16:32N 47°35' W 122°21'0 0.0
2015-Jun-29 15:34N 47°35' W 122°21'0 0.0
2015-Jun-29 15:32N 47°35' W 122°21'0 0.0
2015-Jun-29 14:34N 47°35' W 122°21'0 0.0
2015-Jun-29 14:32N 47°35' W 122°21'0 0.0
2015-Jun-29 13:34N 47°35' W 122°21'0 0.0
2015-Jun-29 13:32N 47°35' W 122°21'0 0.0
2015-Jun-29 12:33N 47°35' W 122°21'0 0.0
2015-Jun-29 12:31N 47°35' W 122°21'0 0.0
2015-Jun-29 11:34N 47°35' W 122°21'0 0.0
2015-Jun-29 11:31N 47°35' W 122°21'0 0.0
2015-Jun-29 10:33N 47°35' W 122°21'0 0.2
2015-Jun-29 10:31N 47°35' W 122°21'0 0.0
2015-Jun-29 09:33N 47°35' W 122°21'0 0.0
2015-Jun-29 09:31N 47°35' W 122°21'0 0.0
2015-Jun-29 08:34N 47°35' W 122°21'0 0.0
2015-Jun-29 08:26N 47°35' W 122°21'0 0.0
2015-Jun-29 07:33N 47°35' W 122°21'0 0.0
2015-Jun-29 06:34N 47°35' W 122°21'0 0.0
2015-Jun-29 05:33N 47°35' W 122°21'0 0.0
2015-Jun-29 04:33N 47°35' W 122°21'0 0.0
2015-Jun-29 03:31N 47°35' W 122°21'0 0.0
2015-Jun-29 02:31N 47°35' W 122°21'0 0.0
2015-Jun-29 01:31N 47°35' W 122°21'0 0.0
2015-Jun-29 00:34N 47°35' W 122°21'0 0.0
2015-Jun-28 23:33N 47°35' W 122°21'1 1.0
2015-Jun-28 22:33N 47°34' W 122°21'0 0.0
2015-Jun-28 21:33N 47°34' W 122°21'0 0.0
2015-Jun-28 20:33N 47°34' W 122°21'0 0.0
2015-Jun-28 19:32N 47°34' W 122°21'1 1.0
2015-Jun-28 18:27N 47°35' W 122°21'0 0.0
2015-Jun-28 17:18N 47°35' W 122°21'0 0.0
2015-Jun-28 14:32N 47°35' W 122°21'0 0.0
2015-Jun-28 13:32N 47°35' W 122°21'0 0.0
2015-Jun-28 12:13N 47°35' W 122°21'0 0.0
2015-Jun-28 11:32N 47°35' W 122°21'0 0.0
2015-Jun-28 10:33N 47°35' W 122°21'0 0.0
2015-Jun-28 09:32N 47°35' W 122°21'1 0.1
2015-Jun-28 05:34N 47°35' W 122°22'0 0.6
2015-Jun-28 04:47N 47°35' W 122°22'0 0.0
2015-Jun-28 04:33N 47°35' W 122°22'0 0.0
2015-Jun-28 04:31N 47°35' W 122°22'0 0.0
2015-Jun-28 03:30N 47°35' W 122°22'0 0.0
2015-Jun-28 03:15N 47°35' W 122°22'0 0.0
2015-Jun-28 02:34N 47°35' W 122°22'0 0.0
2015-Jun-28 02:30N 47°35' W 122°22'0 0.0
2015-Jun-28 01:34N 47°35' W 122°22'0 0.0
2015-Jun-28 01:30N 47°35' W 122°22'0 0.0
2015-Jun-28 00:34N 47°35' W 122°22'0 0.0
2015-Jun-28 00:29N 47°35' W 122°22'0 0.0
2015-Jun-27 23:34N 47°35' W 122°22'0 0.0
2015-Jun-27 23:24N 47°35' W 122°22'0 0.0
2015-Jun-27 22:33N 47°35' W 122°22'0 0.0
2015-Jun-27 22:33N 47°35' W 122°22'2 1.6
2015-Jun-27 21:28N 47°37' W 122°21'0 0.0
2015-Jun-27 21:18N 47°37' W 122°21'0 0.0
2015-Jun-27 20:31N 47°37' W 122°21'0 0.0
2015-Jun-27 19:19N 47°37' W 122°21'0 0.0
2015-Jun-27 17:32N 47°37' W 122°21'0 0.0
2015-Jun-27 16:28N 47°37' W 122°21'0 0.0
2015-Jun-27 15:33N 47°37' W 122°21'0 0.0
2015-Jun-27 14:33N 47°37' W 122°21'1 0.7
2015-Jun-27 13:33N 47°36' W 122°21'1 0.9
2015-Jun-27 12:33N 47°35' W 122°21'0 0.0
2015-Jun-27 11:32N 47°35' W 122°21'0 0.0
2015-Jun-27 10:33N 47°35' W 122°21'0 0.0
2015-Jun-27 09:33N 47°35' W 122°21'0 0.0
2015-Jun-27 08:33N 47°35' W 122°21'0 0.0
2015-Jun-27 07:33N 47°35' W 122°21'0 0.0
2015-Jun-27 06:31N 47°35' W 122°21'0 0.0
2015-Jun-27 04:05N 47°35' W 122°21'0 0.0
2015-Jun-27 03:08N 47°35' W 122°21'0 0.0
2015-Jun-27 02:33N 47°35' W 122°21'1 0.5
2015-Jun-27 01:34N 47°34' W 122°21'0 0.1
2015-Jun-27 00:21N 47°34' W 122°21'0 0.0
2015-Jun-26 23:33N 47°34' W 122°21'0 0.0
2015-Jun-26 22:35N 47°34' W 122°21'0 0.0
2015-Jun-26 22:34N 47°34' W 122°21'0 0.0
2015-Jun-26 22:30N 47°34' W 122°21'0 0.0
2015-Jun-26 21:33N 47°34' W 122°21'0 0.0
2015-Jun-26 21:29N 47°34' W 122°21'0 0.0
2015-Jun-26 20:33N 47°34' W 122°21'0 0.0
2015-Jun-26 20:29N 47°34' W 122°21'0 0.0
2015-Jun-26 19:33N 47°34' W 122°21'0 0.0
2015-Jun-26 19:29N 47°34' W 122°21'0 0.0
2015-Jun-26 18:31N 47°34' W 122°21'0 0.0
2015-Jun-26 18:28N 47°34' W 122°21'0 0.0
2015-Jun-26 17:33N 47°34' W 122°21'0 0.0
2015-Jun-26 17:32N 47°34' W 122°21'0 0.0
2015-Jun-26 16:32N 47°34' W 122°21'0 0.0
2015-Jun-26 16:31N 47°34' W 122°21'0 0.0
2015-Jun-26 15:33N 47°34' W 122°21'0 0.3
2015-Jun-26 15:32N 47°34' W 122°21'0 0.0
2015-Jun-26 14:33N 47°34' W 122°21'0 0.0
2015-Jun-26 14:32N 47°34' W 122°21'0 0.0
2015-Jun-26 13:33N 47°34' W 122°21'0 0.2
2015-Jun-26 13:31N 47°34' W 122°21'0 0.0
2015-Jun-26 12:26N 47°34' W 122°21'0 0.0
2015-Jun-26 12:24N 47°34' W 122°21'0 0.0
2015-Jun-26 11:33N 47°34' W 122°21'0 0.0
2015-Jun-26 11:33N 47°34' W 122°21'0 0.0
2015-Jun-26 10:29N 47°34' W 122°21'0 0.1
2015-Jun-26 10:27N 47°34' W 122°21'0 0.0
2015-Jun-26 09:33N 47°34' W 122°21'0 0.0
2015-Jun-26 09:31N 47°34' W 122°21'0 0.0
2015-Jun-26 08:33N 47°34' W 122°21'0 0.0
2015-Jun-26 08:31N 47°34' W 122°21'0 0.0
2015-Jun-26 07:32N 47°34' W 122°21'0 0.0
2015-Jun-26 07:30N 47°34' W 122°21'0 0.0
2015-Jun-26 06:32N 47°34' W 122°21'0 0.0
2015-Jun-26 06:23N 47°34' W 122°21'0 0.0
2015-Jun-26 06:03N 47°34' W 122°21'0 0.0
2015-Jun-26 05:18N 47°34' W 122°21'0 0.0
2015-Jun-26 04:33N 47°34' W 122°21'0 0.0
2015-Jun-26 04:32N 47°34' W 122°21'0 0.0
2015-Jun-26 03:33N 47°34' W 122°21'0 0.0
2015-Jun-26 03:31N 47°34' W 122°21'0 0.0
2015-Jun-26 02:33N 47°34' W 122°21'0 0.0
2015-Jun-26 02:31N 47°34' W 122°21'0 0.0
2015-Jun-26 01:31N 47°34' W 122°21'0 0.0
2015-Jun-26 01:30N 47°34' W 122°21'0 0.1
2015-Jun-26 00:33N 47°34' W 122°21'0 0.2
2015-Jun-26 00:29N 47°34' W 122°21'2 2.0
2015-Jun-25 23:33N 47°36' W 122°22'2 6.5
2015-Jun-25 23:18N 47°37' W 122°24'5 6.1
2015-Jun-25 22:33N 47°40' W 122°28'0 6.3
2015-Jun-25 22:32N 47°41' W 122°28'6 6.4
2015-Jun-25 21:33N 47°47' W 122°27'0 6.6
2015-Jun-25 21:31N 47°47' W 122°28'6 6.7
2015-Jun-25 20:33N 47°53' W 122°30'0 6.3
2015-Jun-25 20:29N 47°54' W 122°30'6 6.5
2015-Jun-25 19:32N 47°58' W 122°36'24 6.9
2015-Jun-25 16:09N 48°21' W 122°47'5 8.0
2015-Jun-25 15:33N 48°25' W 122°45'6 6.3
2015-Jun-25 14:33N 48°31' W 122°41'4 4.2
2015-Jun-25 13:33N 48°31' W 122°35'0 0.4
2015-Jun-25 12:33N 48°31' W 122°34'0 0.0
2015-Jun-25 11:33N 48°31' W 122°34'0 0.0
2015-Jun-25 10:33N 48°31' W 122°34'0 0.0
2015-Jun-25 09:33N 48°31' W 122°34'0 0.0
2015-Jun-25 08:33N 48°31' W 122°34'0 0.1
2015-Jun-25 07:33N 48°31' W 122°34'0 0.5
2015-Jun-25 06:33N 48°31' W 122°35'1 0.5
2015-Jun-25 05:33N 48°31' W 122°34'3 3.5
2015-Jun-25 04:33N 48°31' W 122°39'4 4.4
2015-Jun-25 03:33N 48°28' W 122°44'5 4.2
2015-Jun-25 02:20N 48°24' W 122°48'4 5.0
2015-Jun-25 01:33N 48°22' W 122°53'7 3.5
2015-Jun-24 23:27N 48°18' W 123°02'3 2.8
2015-Jun-24 22:32N 48°16' W 123°06'1 1.0
2015-Jun-24 21:07N 48°17' W 123°08'2 3.0
2015-Jun-24 20:33N 48°18' W 123°05'3 3.0
2015-Jun-24 19:32N 48°19' W 123°02'3 2.9
2015-Jun-24 18:33N 48°21' W 122°58'3 2.6
2015-Jun-24 17:33N 48°22' W 122°55'3 3.0
2015-Jun-24 16:33N 48°24' W 122°51'2 1.7
2015-Jun-24 15:29N 48°24' W 122°48'4 3.8
2015-Jun-24 14:33N 48°22' W 122°53'5 4.6
2015-Jun-24 13:30N 48°19' W 122°59'4 3.8
2015-Jun-24 12:19N 48°17' W 123°04'3 3.5
2015-Jun-24 11:33N 48°15' W 123°08'4 3.8
2015-Jun-24 10:33N 48°13' W 123°12'3 3.4
2015-Jun-24 09:33N 48°11' W 123°17'3 2.8
2015-Jun-24 08:33N 48°10' W 123°20'3 2.9
2015-Jun-24 07:34N 48°08' W 123°24'1 1.0
2015-Jun-24 06:33N 48°08' W 123°25'0 0.0
2015-Jun-24 05:33N 48°08' W 123°25'0 0.0
2015-Jun-24 04:32N 48°08' W 123°25'0 0.0
2015-Jun-24 03:32N 48°08' W 123°25'0 0.0
2015-Jun-24 02:32N 48°08' W 123°25'0 0.0
2015-Jun-24 01:46N 48°08' W 123°25'0 0.0
2015-Jun-24 01:32N 48°08' W 123°25'0 0.0
2015-Jun-24 00:33N 48°08' W 123°25'1 2.4
2015-Jun-24 00:05N 48°08' W 123°23'3 4.5
2015-Jun-23 23:32N 48°10' W 123°21'7 7.2
2015-Jun-23 22:30N 48°14' W 123°12'10 7.4
2015-Jun-23 21:09N 48°20' W 122°60'4 7.3
2015-Jun-23 20:33N 48°22' W 122°54'8 7.7
2015-Jun-23 19:33N 48°27' W 122°45'4 7.6
2015-Jun-23 19:06N 48°31' W 122°43'58 2.5
2015-Jun-22 19:33N 47°34' W 122°21'0 0.1
2015-Jun-22 18:17N 47°34' W 122°21'0 0.0
2015-Jun-22 17:33N 47°34' W 122°21'0 0.0
2015-Jun-22 16:32N 47°34' W 122°21'0 0.0
2015-Jun-22 15:33N 47°34' W 122°21'0 0.0
2015-Jun-22 14:20N 47°34' W 122°21'0 0.0
2015-Jun-22 13:30N 47°34' W 122°21'0 0.0
2015-Jun-22 12:28N 47°34' W 122°21'0 0.0
2015-Jun-22 09:32N 47°34' W 122°21'0 0.0
2015-Jun-22 08:29N 47°34' W 122°21'0 0.0
2015-Jun-22 07:28N 47°34' W 122°21'0 0.0
2015-Jun-22 06:32N 47°34' W 122°21'0 0.0
2015-Jun-22 05:33N 47°34' W 122°21'0 0.0
2015-Jun-22 04:33N 47°34' W 122°21'0 0.0
2015-Jun-22 03:33N 47°34' W 122°21'0 0.0
2015-Jun-22 02:33N 47°34' W 122°21'0 0.0
2015-Jun-22 01:33N 47°34' W 122°21'0 0.0
2015-Jun-22 00:33N 47°34' W 122°21'0 0.0
2015-Jun-21 23:13N 47°34' W 122°21'0 0.0
2015-Jun-21 22:30N 47°34' W 122°21'0 0.0
2015-Jun-21 21:32N 47°34' W 122°21'1 1.1
2015-Jun-21 20:28N 47°36' W 122°21'1 1.1
2015-Jun-21 19:33N 47°37' W 122°21'0 0.0
2015-Jun-21 19:18N 47°37' W 122°21'0 0.1
2015-Jun-21 18:31N 47°37' W 122°21'0 0.0
2015-Jun-21 17:32N 47°37' W 122°21'0 0.0
2015-Jun-21 16:56N 47°37' W 122°21'0 0.0
2015-Jun-21 16:33N 47°37' W 122°21'0 0.2
2015-Jun-21 16:21N 47°37' W 122°21'0 0.0
2015-Jun-21 15:31N 47°37' W 122°21'0 0.0
2015-Jun-21 14:30N 47°37' W 122°21'0 0.2
2015-Jun-21 14:17N 47°37' W 122°21'1 1.2
2015-Jun-21 13:33N 47°36' W 122°21'0 5.0
2015-Jun-21 13:30N 47°35' W 122°21'0 0.4
2015-Jun-21 12:30N 47°35' W 122°21'0 0.0
2015-Jun-21 11:59N 47°35' W 122°21'0 0.0
2015-Jun-21 11:06N 47°35' W 122°21'0 0.0
2015-Jun-21 10:56N 47°35' W 122°21'0 0.0
2015-Jun-21 09:28N 47°35' W 122°21'0 0.0
2015-Jun-21 08:44N 47°35' W 122°21'0 0.0
2015-Jun-21 08:33N 47°35' W 122°21'0 0.1
2015-Jun-21 08:30N 47°35' W 122°21'0 0.0
2015-Jun-21 07:33N 47°35' W 122°21'0 0.0
2015-Jun-21 07:13N 47°35' W 122°21'0 0.0
2015-Jun-21 06:33N 47°35' W 122°21'0 0.0
2015-Jun-21 06:33N 47°35' W 122°21'0 0.0
2015-Jun-21 05:33N 47°35' W 122°21'0 0.0
2015-Jun-21 05:32N 47°35' W 122°21'0 0.0
2015-Jun-21 04:33N 47°35' W 122°21'0 0.0
2015-Jun-21 04:00N 47°35' W 122°21'0 0.0
2015-Jun-21 03:33N 47°35' W 122°21'0 0.0
2015-Jun-21 03:15N 47°35' W 122°21'0 0.0
2015-Jun-21 02:33N 47°35' W 122°21'0 0.0
2015-Jun-21 02:29N 47°35' W 122°21'0 0.0
2015-Jun-21 01:31N 47°35' W 122°21'0 0.1
2015-Jun-21 01:27N 47°35' W 122°21'0 0.0
2015-Jun-21 00:33N 47°35' W 122°21'0 0.6
2015-Jun-21 00:32N 47°35' W 122°21'0 0.4
2015-Jun-20 23:33N 47°35' W 122°21'0 0.2
2015-Jun-20 23:31N 47°35' W 122°21'0 0.0
2015-Jun-20 22:33N 47°35' W 122°21'0 0.0
2015-Jun-20 22:30N 47°35' W 122°21'0 0.0
2015-Jun-20 21:24N 47°35' W 122°21'0 0.0
2015-Jun-20 21:23N 47°35' W 122°21'  
Track history (hours):
 
Tides and Currents Weather Stations Pressure Air Temp Water Temp Dewpoint Dewpoint Depression Visibility Wind Speed Wind Dir Waves Ship Positions

Ernest Campbell

Owner: Campbell Leasing Company LLC, Wrangell, AK. More information available from US FCC via Universal Licensing System and Coast Guard Vessel Documentation Center.

Last reported at 2015-Jun-30 20:34 UTC. Time now 2015-Jun-30 21:21 UTC.
Position N 48°08' W 123°25'.

Length 33 m; draft 4.6 m.

Type: Tow > 200 m length. MMSI: 366882320.

Date/timePositionNaut miles runAvg speedWind from/ knotsBaromVisibWave heightAir tempDewpointWater temp
2015-Jun-30 20:34N 48°08' W 123°25'0 0.1
2015-Jun-30 19:34N 48°08' W 123°25'0 0.1
2015-Jun-30 19:09N 48°08' W 123°25'0 0.1
2015-Jun-30 18:34N 48°08' W 123°25'0 0.0
2015-Jun-30 17:34N 48°08' W 123°25'0 0.2
2015-Jun-30 17:14N 48°08' W 123°25'0 0.1
2015-Jun-30 16:34N 48°08' W 123°25'0 0.0
2015-Jun-30 16:28N 48°08' W 123°25'0 0.0
2015-Jun-30 15:34N 48°08' W 123°25'0 0.2
2015-Jun-30 14:42N 48°08' W 123°25'0 3.2
2015-Jun-30 14:34N 48°08' W 123°24'4 4.0
2015-Jun-30 13:33N 48°09' W 123°19'6 5.8
2015-Jun-30 12:31N 48°12' W 123°10'6 6.1
2015-Jun-30 11:32N 48°13' W 123°02'17 4.9
2015-Jun-30 08:04N 48°05' W 122°38'3 4.9
2015-Jun-30 07:28N 48°03' W 122°38'4 4.5
2015-Jun-30 06:31N 47°59' W 122°35'1 4.8
2015-Jun-30 06:23N 47°58' W 122°34'2 4.3
2015-Jun-30 05:58N 47°57' W 122°32'2 4.4
2015-Jun-30 05:33N 47°56' W 122°30'5 4.7
2015-Jun-30 04:34N 47°52' W 122°27'1 4.8
2015-Jun-30 04:21N 47°51' W 122°27'4 4.7
2015-Jun-30 03:34N 47°47' W 122°26'0 4.5
2015-Jun-30 03:31N 47°47' W 122°26'5 4.7
2015-Jun-30 02:34N 47°42' W 122°26'0 4.8
2015-Jun-30 02:31N 47°42' W 122°26'5 5.0
2015-Jun-30 01:34N 47°37' W 122°25'0 5.2
2015-Jun-30 01:30N 47°37' W 122°25'3 3.6
2015-Jun-30 00:34N 47°35' W 122°21'0 0.0
2015-Jun-30 00:29N 47°35' W 122°21'0 0.0
2015-Jun-29 23:33N 47°35' W 122°21'0 0.0
2015-Jun-29 23:32N 47°35' W 122°21'0 0.0
2015-Jun-29 22:33N 47°35' W 122°21'0 0.0
2015-Jun-29 22:19N 47°35' W 122°21'0 0.0
2015-Jun-29 21:33N 47°35' W 122°21'0 0.0
2015-Jun-29 21:28N 47°35' W 122°21'1 1.1
2015-Jun-29 20:33N 47°34' W 122°21'0 0.0
2015-Jun-29 20:33N 47°34' W 122°21'1 1.0
2015-Jun-29 19:33N 47°35' W 122°21'0 0.0
2015-Jun-29 19:32N 47°35' W 122°21'0 0.0
2015-Jun-29 18:34N 47°35' W 122°21'0 0.2
2015-Jun-29 18:32N 47°35' W 122°21'0 0.0
2015-Jun-29 17:33N 47°35' W 122°21'0 0.0
2015-Jun-29 17:27N 47°35' W 122°21'0 0.0
2015-Jun-29 16:33N 47°35' W 122°21'0 0.0
2015-Jun-29 16:32N 47°35' W 122°21'0 0.0
2015-Jun-29 15:34N 47°35' W 122°21'0 0.0
2015-Jun-29 15:32N 47°35' W 122°21'0 0.0
2015-Jun-29 14:34N 47°35' W 122°21'0 0.0
2015-Jun-29 14:32N 47°35' W 122°21'0 0.0
2015-Jun-29 13:34N 47°35' W 122°21'0 0.0
2015-Jun-29 13:32N 47°35' W 122°21'0 0.0
2015-Jun-29 12:33N 47°35' W 122°21'0 0.0
2015-Jun-29 12:31N 47°35' W 122°21'0 0.0
2015-Jun-29 11:34N 47°35' W 122°21'0 0.0
2015-Jun-29 11:31N 47°35' W 122°21'0 0.0
2015-Jun-29 10:33N 47°35' W 122°21'0 0.2
2015-Jun-29 10:31N 47°35' W 122°21'0 0.0
2015-Jun-29 09:33N 47°35' W 122°21'0 0.0
2015-Jun-29 09:31N 47°35' W 122°21'0 0.0
2015-Jun-29 08:34N 47°35' W 122°21'0 0.0
2015-Jun-29 08:26N 47°35' W 122°21'0 0.0
2015-Jun-29 07:33N 47°35' W 122°21'0 0.0
2015-Jun-29 06:34N 47°35' W 122°21'0 0.0
2015-Jun-29 05:33N 47°35' W 122°21'0 0.0
2015-Jun-29 04:33N 47°35' W 122°21'0 0.0
2015-Jun-29 03:31N 47°35' W 122°21'0 0.0
2015-Jun-29 02:31N 47°35' W 122°21'0 0.0
2015-Jun-29 01:31N 47°35' W 122°21'0 0.0
2015-Jun-29 00:34N 47°35' W 122°21'0 0.0
2015-Jun-28 23:33N 47°35' W 122°21'1 1.0
2015-Jun-28 22:33N 47°34' W 122°21'0 0.0
2015-Jun-28 21:33N 47°34' W 122°21'0 0.0
2015-Jun-28 20:33N 47°34' W 122°21'0 0.0
2015-Jun-28 19:32N 47°34' W 122°21'1 1.0
2015-Jun-28 18:27N 47°35' W 122°21'0 0.0
2015-Jun-28 17:18N 47°35' W 122°21'0 0.0
2015-Jun-28 14:32N 47°35' W 122°21'0 0.0
2015-Jun-28 13:32N 47°35' W 122°21'0 0.0
2015-Jun-28 12:13N 47°35' W 122°21'0 0.0
2015-Jun-28 11:32N 47°35' W 122°21'0 0.0
2015-Jun-28 10:33N 47°35' W 122°21'0 0.0
2015-Jun-28 09:32N 47°35' W 122°21'1 0.1
2015-Jun-28 05:34N 47°35' W 122°22'0 0.6
2015-Jun-28 04:47N 47°35' W 122°22'0 0.0
2015-Jun-28 04:33N 47°35' W 122°22'0 0.0
2015-Jun-28 04:31N 47°35' W 122°22'0 0.0
2015-Jun-28 03:30N 47°35' W 122°22'0 0.0
2015-Jun-28 03:15N 47°35' W 122°22'0 0.0
2015-Jun-28 02:34N 47°35' W 122°22'0 0.0
2015-Jun-28 02:30N 47°35' W 122°22'0 0.0
2015-Jun-28 01:34N 47°35' W 122°22'0 0.0
2015-Jun-28 01:30N 47°35' W 122°22'0 0.0
2015-Jun-28 00:34N 47°35' W 122°22'0 0.0
2015-Jun-28 00:29N 47°35' W 122°22'0 0.0
2015-Jun-27 23:34N 47°35' W 122°22'0 0.0
2015-Jun-27 23:24N 47°35' W 122°22'0 0.0
2015-Jun-27 22:33N 47°35' W 122°22'0 0.0
2015-Jun-27 22:33N 47°35' W 122°22'2 1.6
2015-Jun-27 21:28N 47°37' W 122°21'0 0.0
2015-Jun-27 21:18N 47°37' W 122°21'0 0.0
2015-Jun-27 20:31N 47°37' W 122°21'0 0.0
2015-Jun-27 19:19N 47°37' W 122°21'0 0.0
2015-Jun-27 17:32N 47°37' W 122°21'0 0.0
2015-Jun-27 16:28N 47°37' W 122°21'0 0.0
2015-Jun-27 15:33N 47°37' W 122°21'0 0.0
2015-Jun-27 14:33N 47°37' W 122°21'1 0.7
2015-Jun-27 13:33N 47°36' W 122°21'1 0.9
2015-Jun-27 12:33N 47°35' W 122°21'0 0.0
2015-Jun-27 11:32N 47°35' W 122°21'0 0.0
2015-Jun-27 10:33N 47°35' W 122°21'0 0.0
2015-Jun-27 09:33N 47°35' W 122°21'0 0.0
2015-Jun-27 08:33N 47°35' W 122°21'0 0.0
2015-Jun-27 07:33N 47°35' W 122°21'0 0.0
2015-Jun-27 06:31N 47°35' W 122°21'0 0.0
2015-Jun-27 04:05N 47°35' W 122°21'0 0.0
2015-Jun-27 03:08N 47°35' W 122°21'0 0.0
2015-Jun-27 02:33N 47°35' W 122°21'1 0.5
2015-Jun-27 01:34N 47°34' W 122°21'0 0.1
2015-Jun-27 00:21N 47°34' W 122°21'0 0.0
2015-Jun-26 23:33N 47°34' W 122°21'0 0.0
2015-Jun-26 22:35N 47°34' W 122°21'0 0.0
2015-Jun-26 22:34N 47°34' W 122°21'0 0.0
2015-Jun-26 22:30N 47°34' W 122°21'0 0.0
2015-Jun-26 21:33N 47°34' W 122°21'0 0.0
2015-Jun-26 21:29N 47°34' W 122°21'0 0.0
2015-Jun-26 20:33N 47°34' W 122°21'0 0.0
2015-Jun-26 20:29N 47°34' W 122°21'0 0.0
2015-Jun-26 19:33N 47°34' W 122°21'0 0.0
2015-Jun-26 19:29N 47°34' W 122°21'0 0.0
2015-Jun-26 18:31N 47°34' W 122°21'0 0.0
2015-Jun-26 18:28N 47°34' W 122°21'0 0.0
2015-Jun-26 17:33N 47°34' W 122°21'0 0.0
2015-Jun-26 17:32N 47°34' W 122°21'0 0.0
2015-Jun-26 16:32N 47°34' W 122°21'0 0.0
2015-Jun-26 16:31N 47°34' W 122°21'0 0.0
2015-Jun-26 15:33N 47°34' W 122°21'0 0.3
2015-Jun-26 15:32N 47°34' W 122°21'0 0.0
2015-Jun-26 14:33N 47°34' W 122°21'0 0.0
2015-Jun-26 14:32N 47°34' W 122°21'0 0.0
2015-Jun-26 13:33N 47°34' W 122°21'0 0.2
2015-Jun-26 13:31N 47°34' W 122°21'0 0.0
2015-Jun-26 12:26N 47°34' W 122°21'0 0.0
2015-Jun-26 12:24N 47°34' W 122°21'0 0.0
2015-Jun-26 11:33N 47°34' W 122°21'0 0.0
2015-Jun-26 11:33N 47°34' W 122°21'0 0.0
2015-Jun-26 10:29N 47°34' W 122°21'0 0.1
2015-Jun-26 10:27N 47°34' W 122°21'0 0.0
2015-Jun-26 09:33N 47°34' W 122°21'0 0.0
2015-Jun-26 09:31N 47°34' W 122°21'0 0.0
2015-Jun-26 08:33N 47°34' W 122°21'0 0.0
2015-Jun-26 08:31N 47°34' W 122°21'0 0.0
2015-Jun-26 07:32N 47°34' W 122°21'0 0.0
2015-Jun-26 07:30N 47°34' W 122°21'0 0.0
2015-Jun-26 06:32N 47°34' W 122°21'0 0.0
2015-Jun-26 06:23N 47°34' W 122°21'0 0.0
2015-Jun-26 06:03N 47°34' W 122°21'0 0.0
2015-Jun-26 05:18N 47°34' W 122°21'0 0.0
2015-Jun-26 04:33N 47°34' W 122°21'0 0.0
2015-Jun-26 04:32N 47°34' W 122°21'0 0.0
2015-Jun-26 03:33N 47°34' W 122°21'0 0.0
2015-Jun-26 03:31N 47°34' W 122°21'0 0.0
2015-Jun-26 02:33N 47°34' W 122°21'0 0.0
2015-Jun-26 02:31N 47°34' W 122°21'0 0.0
2015-Jun-26 01:31N 47°34' W 122°21'0 0.0
2015-Jun-26 01:30N 47°34' W 122°21'0 0.1
2015-Jun-26 00:33N 47°34' W 122°21'0 0.2
2015-Jun-26 00:29N 47°34' W 122°21'2 2.0
2015-Jun-25 23:33N 47°36' W 122°22'2 6.5
2015-Jun-25 23:18N 47°37' W 122°24'5 6.1
2015-Jun-25 22:33N 47°40' W 122°28'0 6.3
2015-Jun-25 22:32N 47°41' W 122°28'6 6.4
2015-Jun-25 21:33N 47°47' W 122°27'0 6.6
2015-Jun-25 21:31N 47°47' W 122°28'6 6.7
2015-Jun-25 20:33N 47°53' W 122°30'0 6.3
2015-Jun-25 20:29N 47°54' W 122°30'6 6.5
2015-Jun-25 19:32N 47°58' W 122°36'24 6.9
2015-Jun-25 16:09N 48°21' W 122°47'5 8.0
2015-Jun-25 15:33N 48°25' W 122°45'6 6.3
2015-Jun-25 14:33N 48°31' W 122°41'4 4.2
2015-Jun-25 13:33N 48°31' W 122°35'0 0.4
2015-Jun-25 12:33N 48°31' W 122°34'0 0.0
2015-Jun-25 11:33N 48°31' W 122°34'0 0.0
2015-Jun-25 10:33N 48°31' W 122°34'0 0.0
2015-Jun-25 09:33N 48°31' W 122°34'0 0.0
2015-Jun-25 08:33N 48°31' W 122°34'0 0.1
2015-Jun-25 07:33N 48°31' W 122°34'0 0.5
2015-Jun-25 06:33N 48°31' W 122°35'1 0.5
2015-Jun-25 05:33N 48°31' W 122°34'3 3.5
2015-Jun-25 04:33N 48°31' W 122°39'4 4.4
2015-Jun-25 03:33N 48°28' W 122°44'5 4.2
2015-Jun-25 02:20N 48°24' W 122°48'4 5.0
2015-Jun-25 01:33N 48°22' W 122°53'7 3.5
2015-Jun-24 23:27N 48°18' W 123°02'3 2.8
2015-Jun-24 22:32N 48°16' W 123°06'1 1.0
2015-Jun-24 21:07N 48°17' W 123°08'2 3.0
2015-Jun-24 20:33N 48°18' W 123°05'3 3.0
2015-Jun-24 19:32N 48°19' W 123°02'3 2.9
2015-Jun-24 18:33N 48°21' W 122°58'3 2.6
2015-Jun-24 17:33N 48°22' W 122°55'3 3.0
2015-Jun-24 16:33N 48°24' W 122°51'2 1.7
2015-Jun-24 15:29N 48°24' W 122°48'4 3.8
2015-Jun-24 14:33N 48°22' W 122°53'5 4.6
2015-Jun-24 13:30N 48°19' W 122°59'4 3.8
2015-Jun-24 12:19N 48°17' W 123°04'3 3.5
2015-Jun-24 11:33N 48°15' W 123°08'4 3.8
2015-Jun-24 10:33N 48°13' W 123°12'3 3.4
2015-Jun-24 09:33N 48°11' W 123°17'3 2.8
2015-Jun-24 08:33N 48°10' W 123°20'3 2.9
2015-Jun-24 07:34N 48°08' W 123°24'1 1.0
2015-Jun-24 06:33N 48°08' W 123°25'0 0.0
2015-Jun-24 05:33N 48°08' W 123°25'0 0.0
2015-Jun-24 04:32N 48°08' W 123°25'0 0.0
2015-Jun-24 03:32N 48°08' W 123°25'0 0.0
2015-Jun-24 02:32N 48°08' W 123°25'0 0.0
2015-Jun-24 01:46N 48°08' W 123°25'0 0.0
2015-Jun-24 01:32N 48°08' W 123°25'0 0.0
2015-Jun-24 00:33N 48°08' W 123°25'1 2.4
2015-Jun-24 00:05N 48°08' W 123°23'3 4.5
2015-Jun-23 23:32N 48°10' W 123°21'7 7.2
2015-Jun-23 22:30N 48°14' W 123°12'10 7.4
2015-Jun-23 21:09N 48°20' W 122°60'4 7.3
2015-Jun-23 20:33N 48°22' W 122°54'8 7.7
2015-Jun-23 19:33N 48°27' W 122°45'4 7.6
2015-Jun-23 19:06N 48°31' W 122°43'58 2.5
2015-Jun-22 19:33N 47°34' W 122°21'0 0.1
2015-Jun-22 18:17N 47°34' W 122°21'0 0.0
2015-Jun-22 17:33N 47°34' W 122°21'0 0.0
2015-Jun-22 16:32N 47°34' W 122°21'0 0.0
2015-Jun-22 15:33N 47°34' W 122°21'0 0.0
2015-Jun-22 14:20N 47°34' W 122°21'0 0.0
2015-Jun-22 13:30N 47°34' W 122°21'0 0.0
2015-Jun-22 12:28N 47°34' W 122°21'0 0.0
2015-Jun-22 09:32N 47°34' W 122°21'0 0.0
2015-Jun-22 08:29N 47°34' W 122°21'0 0.0
2015-Jun-22 07:28N 47°34' W 122°21'0 0.0
2015-Jun-22 06:32N 47°34' W 122°21'0 0.0
2015-Jun-22 05:33N 47°34' W 122°21'0 0.0
2015-Jun-22 04:33N 47°34' W 122°21'0 0.0
2015-Jun-22 03:33N 47°34' W 122°21'0 0.0
2015-Jun-22 02:33N 47°34' W 122°21'0 0.0
2015-Jun-22 01:33N 47°34' W 122°21'0 0.0
2015-Jun-22 00:33N 47°34' W 122°21'0 0.0
2015-Jun-21 23:13N 47°34' W 122°21'0 0.0
2015-Jun-21 22:30N 47°34' W 122°21'0 0.0
2015-Jun-21 21:32N 47°34' W 122°21'1 1.1
2015-Jun-21 20:28N 47°36' W 122°21'1 1.1
2015-Jun-21 19:33N 47°37' W 122°21'0 0.0
2015-Jun-21 19:18N 47°37' W 122°21'0 0.1
2015-Jun-21 18:31N 47°37' W 122°21'0 0.0
2015-Jun-21 17:32N 47°37' W 122°21'0 0.0
2015-Jun-21 16:56N 47°37' W 122°21'0 0.0
2015-Jun-21 16:33N 47°37' W 122°21'0 0.2
2015-Jun-21 16:21N 47°37' W 122°21'0 0.0
2015-Jun-21 15:31N 47°37' W 122°21'0 0.0
2015-Jun-21 14:30N 47°37' W 122°21'0 0.2
2015-Jun-21 14:17N 47°37' W 122°21'1 1.2
2015-Jun-21 13:33N 47°36' W 122°21'0 5.0
2015-Jun-21 13:30N 47°35' W 122°21'0 0.4
2015-Jun-21 12:30N 47°35' W 122°21'0 0.0
2015-Jun-21 11:59N 47°35' W 122°21'0 0.0
2015-Jun-21 11:06N 47°35' W 122°21'0 0.0
2015-Jun-21 10:56N 47°35' W 122°21'0 0.0
2015-Jun-21 09:28N 47°35' W 122°21'0 0.0
2015-Jun-21 08:44N 47°35' W 122°21'0 0.0
2015-Jun-21 08:33N 47°35' W 122°21'0 0.1
2015-Jun-21 08:30N 47°35' W 122°21'0 0.0
2015-Jun-21 07:33N 47°35' W 122°21'0 0.0
2015-Jun-21 07:13N 47°35' W 122°21'0 0.0
2015-Jun-21 06:33N 47°35' W 122°21'0 0.0
2015-Jun-21 06:33N 47°35' W 122°21'0 0.0
2015-Jun-21 05:33N 47°35' W 122°21'0 0.0
2015-Jun-21 05:32N 47°35' W 122°21'0 0.0
2015-Jun-21 04:33N 47°35' W 122°21'0 0.0
2015-Jun-21 04:00N 47°35' W 122°21'0 0.0
2015-Jun-21 03:33N 47°35' W 122°21'0 0.0
2015-Jun-21 03:15N 47°35' W 122°21'0 0.0
2015-Jun-21 02:33N 47°35' W 122°21'0 0.0
2015-Jun-21 02:29N 47°35' W 122°21'0 0.0
2015-Jun-21 01:31N 47°35' W 122°21'0 0.1
2015-Jun-21 01:27N 47°35' W 122°21'0 0.0
2015-Jun-21 00:33N 47°35' W 122°21'0 0.6
2015-Jun-21 00:32N 47°35' W 122°21'0 0.4
2015-Jun-20 23:33N 47°35' W 122°21'0 0.2
2015-Jun-20 23:31N 47°35' W 122°21'0 0.0
2015-Jun-20 22:33N 47°35' W 122°21'0 0.0
2015-Jun-20 22:30N 47°35' W 122°21'0 0.0
2015-Jun-20 21:24N 47°35' W 122°21'0 0.0
2015-Jun-20 21:23N 47°35' W 122°21'  

Dump ship's entire track history